THY3YM LIBD-LTFM
Flight info
| Callsign | THY3YM |
|---|---|
| Flight time | 1h 32m |
| Altitude | 37000 |
| Route | VURKE DCT PAPIZ DCT PINDO UM603 PEREN UN644 DIGTI UT162 DRAMO |
| Aircraft | B738/M-SDE2E3FGHIRWXY/LB1 |
Departure
| Time | 2026-04-25 12:05 |
|---|---|
| Airport | Bari Karol Wojtyła International Airport (LIBD) |
Arrival
| Time | 2026-04-25 13:38 |
|---|---|
| Airport | İstanbul Airport (LTFM) |
| Time | Latitude | Longitude | Altitude | Speed | Heading |
|---|---|---|---|---|---|
| 2026-04-25 11:39 | 41.13525 | 16.76345 | 158 ft | 0 kts | 159° |
| 2026-04-25 11:56 | 41.13526 | 16.76345 | 158 ft | 2 kts | 159° |
| 2026-04-25 11:56 | 41.13549 | 16.76332 | 158 ft | 4 kts | 151° |
| 2026-04-25 11:57 | 41.13572 | 16.76312 | 158 ft | 4 kts | 133° |
| 2026-04-25 11:57 | 41.13584 | 16.76285 | 158 ft | 4 kts | 86° |
| 2026-04-25 11:57 | 41.13583 | 16.76275 | 158 ft | 1 kts | 69° |
| 2026-04-25 11:59 | 41.13587 | 16.76287 | 158 ft | 3 kts | 69° |
| 2026-04-25 12:00 | 41.13604 | 16.76331 | 157 ft | 1 kts | 356° |
| 2026-04-25 12:00 | 41.13602 | 16.76315 | 158 ft | 3 kts | 243° |
| 2026-04-25 12:01 | 41.13597 | 16.76070 | 157 ft | 14 kts | 323° |
| 2026-04-25 12:01 | 41.13636 | 16.75964 | 157 ft | 13 kts | 264° |
| 2026-04-25 12:01 | 41.13604 | 16.75852 | 157 ft | 13 kts | 249° |
| 2026-04-25 12:01 | 41.13575 | 16.75742 | 157 ft | 12 kts | 251° |
| 2026-04-25 12:02 | 41.13517 | 16.75532 | 157 ft | 12 kts | 249° |
| 2026-04-25 12:02 | 41.13489 | 16.75431 | 157 ft | 12 kts | 250° |
| 2026-04-25 12:02 | 41.13461 | 16.75332 | 157 ft | 11 kts | 249° |
| 2026-04-25 12:03 | 41.13434 | 16.75238 | 157 ft | 11 kts | 249° |
| 2026-04-25 12:03 | 41.13406 | 16.75145 | 157 ft | 11 kts | 249° |
| 2026-04-25 12:03 | 41.13377 | 16.75047 | 157 ft | 12 kts | 249° |
| 2026-04-25 12:03 | 41.13345 | 16.74930 | 157 ft | 13 kts | 256° |
| 2026-04-25 12:04 | 41.13374 | 16.74813 | 155 ft | 15 kts | 303° |
| 2026-04-25 12:04 | 41.13463 | 16.74730 | 147 ft | 17 kts | 16° |
| 2026-04-25 12:04 | 41.13502 | 16.74825 | 147 ft | 11 kts | 71° |
| 2026-04-25 12:04 | 41.13564 | 16.75051 | 147 ft | 54 kts | 69° |
| 2026-04-25 12:05 | 41.13775 | 16.75788 | 151 ft | 115 kts | 69° |
| 2026-04-25 12:05 | 41.14128 | 16.76961 | 174 ft | 158 kts | 63° |
| 2026-04-25 12:05 | 41.14579 | 16.78311 | 746 ft | 158 kts | 63° |
| 2026-04-25 12:05 | 41.14951 | 16.79749 | 1307 ft | 170 kts | 67° |
| 2026-04-25 12:06 | 41.15300 | 16.81274 | 1867 ft | 175 kts | 66° |
| 2026-04-25 12:06 | 41.15920 | 16.83447 | 2246 ft | 208 kts | 65° |
| 2026-04-25 12:06 | 41.17041 | 16.87347 | 2768 ft | 241 kts | 66° |
| 2026-04-25 12:06 | 41.18271 | 16.91671 | 3938 ft | 256 kts | 67° |
| 2026-04-25 12:07 | 41.18869 | 16.94888 | 4751 ft | 270 kts | 89° |
| 2026-04-25 12:07 | 41.18733 | 16.98396 | 5598 ft | 278 kts | 90° |
| 2026-04-25 12:07 | 41.18666 | 17.00979 | 6295 ft | 281 kts | 89° |
| 2026-04-25 12:07 | 41.18609 | 17.03591 | 6982 ft | 284 kts | 89° |
| 2026-04-25 12:08 | 41.18564 | 17.06218 | 7725 ft | 286 kts | 89° |
| 2026-04-25 12:08 | 41.18524 | 17.08837 | 8433 ft | 288 kts | 89° |
| 2026-04-25 12:08 | 41.18484 | 17.11513 | 9176 ft | 291 kts | 89° |
| 2026-04-25 12:08 | 41.18442 | 17.14211 | 9942 ft | 294 kts | 89° |
| 2026-04-25 12:09 | 41.18442 | 17.16946 | 10498 ft | 303 kts | 84° |
| 2026-04-25 12:09 | 41.18672 | 17.19838 | 10657 ft | 326 kts | 80° |
| 2026-04-25 12:09 | 41.19012 | 17.22911 | 10829 ft | 347 kts | 79° |
| 2026-04-25 12:09 | 41.19389 | 17.26168 | 10999 ft | 367 kts | 79° |
| 2026-04-25 12:10 | 41.19774 | 17.29569 | 11407 ft | 377 kts | 80° |
| 2026-04-25 12:10 | 41.20151 | 17.33034 | 12041 ft | 379 kts | 81° |
| 2026-04-25 12:10 | 41.20518 | 17.36510 | 12744 ft | 381 kts | 81° |
| 2026-04-25 12:10 | 41.20878 | 17.40003 | 13424 ft | 384 kts | 81° |
| 2026-04-25 12:11 | 41.21238 | 17.43540 | 14025 ft | 388 kts | 81° |
| 2026-04-25 12:11 | 41.21597 | 17.47108 | 14636 ft | 391 kts | 81° |
| 2026-04-25 12:11 | 41.21956 | 17.50690 | 15286 ft | 393 kts | 81° |
| 2026-04-25 12:11 | 41.22316 | 17.54308 | 15921 ft | 396 kts | 81° |
| 2026-04-25 12:12 | 41.22678 | 17.57947 | 16555 ft | 399 kts | 81° |
| 2026-04-25 12:12 | 41.22918 | 17.60371 | 16957 ft | 401 kts | 81° |
| 2026-04-25 12:12 | 41.23406 | 17.65310 | 17764 ft | 405 kts | 81° |
| 2026-04-25 12:12 | 41.23773 | 17.69036 | 18340 ft | 409 kts | 81° |
| 2026-04-25 12:13 | 41.24144 | 17.72817 | 18776 ft | 414 kts | 81° |
| 2026-04-25 12:13 | 41.24516 | 17.76624 | 19311 ft | 416 kts | 81° |
| 2026-04-25 12:13 | 41.24889 | 17.80450 | 19887 ft | 418 kts | 81° |
| 2026-04-25 12:13 | 41.25261 | 17.84286 | 20410 ft | 420 kts | 82° |
| 2026-04-25 12:14 | 41.25636 | 17.88160 | 20902 ft | 423 kts | 82° |
| 2026-04-25 12:14 | 41.26007 | 17.92014 | 21369 ft | 426 kts | 82° |
| 2026-04-25 12:14 | 41.26384 | 17.95934 | 21852 ft | 429 kts | 82° |
| 2026-04-25 12:14 | 41.26762 | 17.99883 | 22335 ft | 432 kts | 82° |
| 2026-04-25 12:15 | 41.27141 | 18.03850 | 22796 ft | 434 kts | 82° |
| 2026-04-25 12:15 | 41.27521 | 18.07853 | 23235 ft | 437 kts | 82° |
| 2026-04-25 12:15 | 41.27902 | 18.11872 | 23684 ft | 440 kts | 82° |
| 2026-04-25 12:15 | 41.28285 | 18.15915 | 24060 ft | 442 kts | 82° |
| 2026-04-25 12:16 | 41.28669 | 18.19978 | 24442 ft | 444 kts | 82° |
| 2026-04-25 12:16 | 41.29054 | 18.24057 | 24824 ft | 445 kts | 82° |
| 2026-04-25 12:16 | 41.29439 | 18.28152 | 25201 ft | 447 kts | 82° |
| 2026-04-25 12:16 | 41.29820 | 18.32213 | 25560 ft | 449 kts | 82° |
| 2026-04-25 12:17 | 41.30205 | 18.36335 | 25913 ft | 451 kts | 82° |
| 2026-04-25 12:17 | 41.30592 | 18.40482 | 26256 ft | 452 kts | 82° |
| 2026-04-25 12:17 | 41.30978 | 18.44644 | 26596 ft | 454 kts | 82° |
| 2026-04-25 12:17 | 41.31362 | 18.48812 | 26962 ft | 455 kts | 82° |
| 2026-04-25 12:18 | 41.31744 | 18.53001 | 27288 ft | 457 kts | 82° |
| 2026-04-25 12:18 | 41.32126 | 18.57199 | 27581 ft | 459 kts | 82° |
| 2026-04-25 12:18 | 41.32508 | 18.61418 | 27902 ft | 460 kts | 82° |
| 2026-04-25 12:18 | 41.32888 | 18.65637 | 28352 ft | 458 kts | 82° |
| 2026-04-25 12:19 | 41.33516 | 18.72645 | 29227 ft | 453 kts | 82° |
| 2026-04-25 12:19 | 41.34005 | 18.78142 | 29840 ft | 451 kts | 82° |
| 2026-04-25 12:19 | 41.34369 | 18.82285 | 30290 ft | 449 kts | 82° |
| 2026-04-25 12:20 | 41.34727 | 18.86396 | 30708 ft | 446 kts | 82° |
| 2026-04-25 12:20 | 41.35080 | 18.90492 | 31090 ft | 445 kts | 82° |
| 2026-04-25 12:20 | 41.35432 | 18.94573 | 31440 ft | 444 kts | 82° |
| 2026-04-25 12:20 | 41.35783 | 18.98659 | 31803 ft | 442 kts | 82° |
| 2026-04-25 12:21 | 41.36132 | 19.02720 | 32186 ft | 441 kts | 82° |
| 2026-04-25 12:21 | 41.36479 | 19.06762 | 32559 ft | 439 kts | 82° |
| 2026-04-25 12:21 | 41.36826 | 19.10796 | 32914 ft | 438 kts | 82° |
| 2026-04-25 12:21 | 41.37172 | 19.14819 | 33291 ft | 436 kts | 82° |
| 2026-04-25 12:22 | 41.37513 | 19.18821 | 33697 ft | 434 kts | 82° |
| 2026-04-25 12:22 | 41.37851 | 19.22807 | 34048 ft | 432 kts | 82° |
| 2026-04-25 12:22 | 41.38186 | 19.26777 | 34281 ft | 433 kts | 82° |
| 2026-04-25 12:22 | 41.38523 | 19.30778 | 34404 ft | 436 kts | 82° |
| 2026-04-25 12:23 | 41.38859 | 19.34797 | 34629 ft | 436 kts | 82° |
| 2026-04-25 12:23 | 41.39191 | 19.38791 | 34951 ft | 434 kts | 82° |
| 2026-04-25 12:23 | 41.39522 | 19.42782 | 35252 ft | 432 kts | 82° |
| 2026-04-25 12:23 | 41.39851 | 19.46754 | 35498 ft | 432 kts | 82° |
| 2026-04-25 12:24 | 41.40177 | 19.50727 | 35758 ft | 431 kts | 82° |
| 2026-04-25 12:24 | 41.40501 | 19.54688 | 36024 ft | 430 kts | 82° |
| 2026-04-25 12:24 | 41.40824 | 19.58650 | 36262 ft | 430 kts | 82° |
| 2026-04-25 12:24 | 41.41147 | 19.62616 | 36479 ft | 430 kts | 82° |
| 2026-04-25 12:25 | 41.41468 | 19.66568 | 36700 ft | 429 kts | 82° |
| 2026-04-25 12:25 | 41.41789 | 19.70520 | 36938 ft | 429 kts | 82° |
| 2026-04-25 12:25 | 41.42111 | 19.74476 | 37012 ft | 432 kts | 82° |
| 2026-04-25 12:26 | 41.42757 | 19.82419 | 37032 ft | 433 kts | 82° |
| 2026-04-25 12:26 | 41.43391 | 19.90360 | 37023 ft | 427 kts | 82° |
| 2026-04-25 12:27 | 41.44012 | 19.98215 | 37012 ft | 425 kts | 82° |
| 2026-04-25 12:27 | 41.44625 | 20.06028 | 37008 ft | 424 kts | 82° |
| 2026-04-25 12:28 | 41.45236 | 20.13795 | 37033 ft | 424 kts | 82° |
| 2026-04-25 12:28 | 41.45852 | 20.21621 | 37022 ft | 425 kts | 82° |
| 2026-04-25 12:29 | 41.46465 | 20.29479 | 37024 ft | 427 kts | 82° |
| 2026-04-25 12:29 | 41.47079 | 20.37387 | 37014 ft | 430 kts | 82° |
| 2026-04-25 12:30 | 41.47694 | 20.45327 | 37013 ft | 432 kts | 82° |
| 2026-04-25 12:30 | 41.48310 | 20.53316 | 37021 ft | 433 kts | 82° |
| 2026-04-25 12:31 | 41.48921 | 20.61314 | 37016 ft | 433 kts | 82° |
| 2026-04-25 12:31 | 41.49529 | 20.69302 | 37021 ft | 433 kts | 82° |
| 2026-04-25 12:32 | 41.50132 | 20.77244 | 37017 ft | 432 kts | 82° |
| 2026-04-25 12:32 | 41.50728 | 20.85213 | 37013 ft | 431 kts | 82° |
| 2026-04-25 12:33 | 41.51315 | 20.93170 | 37018 ft | 431 kts | 82° |
| 2026-04-25 12:33 | 41.51901 | 21.01121 | 37028 ft | 430 kts | 82° |
| 2026-04-25 12:34 | 41.52486 | 21.09064 | 37023 ft | 429 kts | 82° |
| 2026-04-25 12:34 | 41.53067 | 21.16991 | 37045 ft | 429 kts | 82° |
| 2026-04-25 12:35 | 41.53641 | 21.24915 | 37030 ft | 429 kts | 82° |
| 2026-04-25 12:35 | 41.54212 | 21.32848 | 37037 ft | 429 kts | 82° |
| 2026-04-25 12:36 | 41.54780 | 21.40779 | 37034 ft | 429 kts | 82° |
| 2026-04-25 12:36 | 41.55348 | 21.48664 | 37043 ft | 429 kts | 82° |
| 2026-04-25 12:37 | 41.55921 | 21.56611 | 37032 ft | 430 kts | 82° |
| 2026-04-25 12:37 | 41.56494 | 21.64575 | 37040 ft | 430 kts | 82° |
| 2026-04-25 12:38 | 41.57064 | 21.72539 | 37032 ft | 431 kts | 82° |
| 2026-04-25 12:38 | 41.57637 | 21.80530 | 37055 ft | 432 kts | 82° |
| 2026-04-25 12:39 | 41.58204 | 21.88491 | 37041 ft | 434 kts | 82° |
| 2026-04-25 12:39 | 41.58772 | 21.96518 | 37031 ft | 434 kts | 82° |
| 2026-04-25 12:40 | 41.59339 | 22.04558 | 37031 ft | 434 kts | 82° |
| 2026-04-25 12:40 | 41.59904 | 22.12595 | 37036 ft | 434 kts | 82° |
| 2026-04-25 12:41 | 41.60463 | 22.20629 | 37034 ft | 434 kts | 82° |
| 2026-04-25 12:41 | 41.61017 | 22.28668 | 37032 ft | 434 kts | 82° |
| 2026-04-25 12:42 | 41.61566 | 22.36639 | 37033 ft | 433 kts | 82° |
| 2026-04-25 12:42 | 41.62117 | 22.44653 | 37028 ft | 433 kts | 82° |
| 2026-04-25 12:43 | 41.62666 | 22.52678 | 37033 ft | 433 kts | 82° |
| 2026-04-25 12:43 | 41.63394 | 22.63339 | 37037 ft | 433 kts | 82° |
| 2026-04-25 12:44 | 41.63940 | 22.71352 | 37032 ft | 433 kts | 82° |
| 2026-04-25 12:45 | 41.64758 | 22.83376 | 37040 ft | 433 kts | 82° |
| 2026-04-25 12:45 | 41.65563 | 22.95422 | 37026 ft | 434 kts | 82° |
| 2026-04-25 12:46 | 41.66098 | 23.03460 | 37022 ft | 434 kts | 82° |
| 2026-04-25 12:46 | 41.66632 | 23.11514 | 37045 ft | 435 kts | 82° |
| 2026-04-25 12:47 | 41.67165 | 23.19586 | 37033 ft | 436 kts | 82° |
| 2026-04-25 12:47 | 41.67694 | 23.27671 | 37027 ft | 436 kts | 82° |
| 2026-04-25 12:48 | 41.68223 | 23.35758 | 37030 ft | 436 kts | 82° |
| 2026-04-25 12:48 | 41.68749 | 23.43796 | 37030 ft | 437 kts | 82° |
| 2026-04-25 12:49 | 41.69274 | 23.51899 | 37021 ft | 437 kts | 82° |
| 2026-04-25 12:49 | 41.69798 | 23.60013 | 37027 ft | 438 kts | 82° |
| 2026-04-25 12:50 | 41.70322 | 23.68140 | 37021 ft | 439 kts | 82° |
| 2026-04-25 12:50 | 41.70848 | 23.76282 | 37016 ft | 439 kts | 82° |
| 2026-04-25 12:51 | 41.71373 | 23.84439 | 37007 ft | 439 kts | 82° |
| 2026-04-25 12:51 | 41.71893 | 23.92586 | 37020 ft | 440 kts | 82° |
| 2026-04-25 12:52 | 41.72413 | 24.00757 | 37011 ft | 440 kts | 82° |
| 2026-04-25 12:52 | 41.72930 | 24.08875 | 37021 ft | 440 kts | 82° |
| 2026-04-25 12:53 | 41.73451 | 24.17045 | 37021 ft | 440 kts | 82° |
| 2026-04-25 12:53 | 41.73970 | 24.25214 | 37013 ft | 440 kts | 82° |
| 2026-04-25 12:54 | 41.74487 | 24.33395 | 37022 ft | 440 kts | 82° |
| 2026-04-25 12:54 | 41.75006 | 24.41558 | 37024 ft | 439 kts | 82° |
| 2026-04-25 12:55 | 41.75435 | 24.48342 | 37019 ft | 439 kts | 82° |
| 2026-04-25 12:55 | 41.76032 | 24.57876 | 37006 ft | 439 kts | 82° |
| 2026-04-25 12:56 | 41.76540 | 24.65993 | 37002 ft | 440 kts | 82° |
| 2026-04-25 12:56 | 41.77051 | 24.74172 | 37008 ft | 441 kts | 82° |
| 2026-04-25 12:57 | 41.77564 | 24.82363 | 37013 ft | 442 kts | 82° |
| 2026-04-25 12:57 | 41.78078 | 24.90571 | 37004 ft | 442 kts | 82° |
| 2026-04-25 12:58 | 41.78594 | 24.98789 | 37007 ft | 443 kts | 82° |
| 2026-04-25 12:58 | 41.79113 | 25.07017 | 37003 ft | 443 kts | 82° |
| 2026-04-25 12:59 | 41.79633 | 25.15262 | 37004 ft | 444 kts | 82° |
| 2026-04-25 12:59 | 41.80149 | 25.23500 | 37004 ft | 444 kts | 82° |
| 2026-04-25 13:00 | 41.80578 | 25.30367 | 37020 ft | 444 kts | 82° |
| 2026-04-25 13:00 | 41.81179 | 25.39960 | 37018 ft | 444 kts | 82° |
| 2026-04-25 13:01 | 41.81701 | 25.48218 | 37009 ft | 444 kts | 82° |
| 2026-04-25 13:01 | 41.82223 | 25.56473 | 37016 ft | 444 kts | 82° |
| 2026-04-25 13:02 | 41.82746 | 25.64735 | 37035 ft | 444 kts | 82° |
| 2026-04-25 13:02 | 41.83282 | 25.72979 | 37011 ft | 444 kts | 82° |
| 2026-04-25 13:03 | 41.83830 | 25.81213 | 37020 ft | 443 kts | 82° |
| 2026-04-25 13:03 | 41.84380 | 25.89393 | 37021 ft | 442 kts | 82° |
| 2026-04-25 13:04 | 41.84934 | 25.97613 | 37029 ft | 442 kts | 82° |
| 2026-04-25 13:04 | 41.85305 | 26.05845 | 36999 ft | 447 kts | 96° |
| 2026-04-25 13:05 | 41.84399 | 26.09836 | 37059 ft | 451 kts | 111° |
| 2026-04-25 13:05 | 41.83010 | 26.13633 | 37012 ft | 454 kts | 117° |
| 2026-04-25 13:05 | 41.79338 | 26.20570 | 37026 ft | 457 kts | 125° |
| 2026-04-25 13:06 | 41.75404 | 26.27289 | 37037 ft | 458 kts | 126° |
| 2026-04-25 13:06 | 41.71478 | 26.34020 | 37026 ft | 459 kts | 125° |
| 2026-04-25 13:07 | 41.70143 | 26.36330 | 37028 ft | 459 kts | 125° |
| 2026-04-25 13:12 | 41.68465 | 26.39239 | 37056 ft | 458 kts | 125° |
| 2026-04-25 13:13 | 41.63943 | 26.47113 | 36979 ft | 460 kts | 125° |
| 2026-04-25 13:13 | 41.61979 | 26.50535 | 36359 ft | 467 kts | 125° |
| 2026-04-25 13:13 | 41.60004 | 26.53971 | 35876 ft | 464 kts | 125° |
| 2026-04-25 13:14 | 41.58036 | 26.57387 | 35137 ft | 465 kts | 125° |
| 2026-04-25 13:14 | 41.56062 | 26.60808 | 34425 ft | 464 kts | 125° |
| 2026-04-25 13:14 | 41.54092 | 26.64218 | 33671 ft | 464 kts | 125° |
| 2026-04-25 13:14 | 41.52129 | 26.67608 | 33057 ft | 459 kts | 125° |
| 2026-04-25 13:15 | 41.50175 | 26.70981 | 32485 ft | 459 kts | 125° |
| 2026-04-25 13:15 | 41.48209 | 26.74372 | 31827 ft | 467 kts | 125° |
| 2026-04-25 13:15 | 41.46208 | 26.77823 | 31207 ft | 470 kts | 125° |
| 2026-04-25 13:15 | 41.44217 | 26.81249 | 30632 ft | 466 kts | 126° |
| 2026-04-25 13:16 | 41.42226 | 26.84673 | 29944 ft | 469 kts | 126° |
| 2026-04-25 13:16 | 41.40224 | 26.88113 | 29193 ft | 472 kts | 126° |
| 2026-04-25 13:16 | 41.38227 | 26.91539 | 28540 ft | 473 kts | 126° |
| 2026-04-25 13:16 | 41.36216 | 26.94982 | 27844 ft | 469 kts | 126° |
| 2026-04-25 13:17 | 41.34216 | 26.98402 | 27165 ft | 467 kts | 126° |
| 2026-04-25 13:17 | 41.32212 | 27.01827 | 26504 ft | 469 kts | 126° |
| 2026-04-25 13:17 | 41.30209 | 27.05248 | 26065 ft | 465 kts | 126° |
| 2026-04-25 13:17 | 41.28235 | 27.08616 | 25833 ft | 460 kts | 126° |
| 2026-04-25 13:18 | 41.26268 | 27.11968 | 25577 ft | 458 kts | 127° |
| 2026-04-25 13:18 | 41.24311 | 27.15301 | 25332 ft | 457 kts | 127° |
| 2026-04-25 13:18 | 41.22360 | 27.18620 | 25095 ft | 455 kts | 127° |
| 2026-04-25 13:18 | 41.20411 | 27.21933 | 24853 ft | 454 kts | 127° |
| 2026-04-25 13:19 | 41.18501 | 27.25175 | 24327 ft | 450 kts | 127° |
| 2026-04-25 13:19 | 41.16584 | 27.28426 | 23752 ft | 444 kts | 127° |
| 2026-04-25 13:19 | 41.14688 | 27.31636 | 23067 ft | 440 kts | 127° |
| 2026-04-25 13:19 | 41.14053 | 27.32712 | 22834 ft | 438 kts | 127° |
| 2026-04-25 13:20 | 41.10955 | 27.37951 | 21793 ft | 429 kts | 127° |
| 2026-04-25 13:20 | 41.09123 | 27.41044 | 21169 ft | 425 kts | 127° |
| 2026-04-25 13:20 | 41.07307 | 27.44107 | 20564 ft | 420 kts | 127° |
| 2026-04-25 13:20 | 41.05504 | 27.47146 | 19970 ft | 417 kts | 128° |
| 2026-04-25 13:21 | 41.03719 | 27.50153 | 19382 ft | 413 kts | 128° |
| 2026-04-25 13:21 | 41.01970 | 27.53095 | 18809 ft | 410 kts | 128° |
| 2026-04-25 13:21 | 41.00214 | 27.56047 | 18202 ft | 407 kts | 128° |
| 2026-04-25 13:21 | 40.98462 | 27.58988 | 17535 ft | 405 kts | 128° |
| 2026-04-25 13:22 | 40.96724 | 27.61902 | 16926 ft | 401 kts | 128° |
| 2026-04-25 13:22 | 40.95003 | 27.64785 | 16339 ft | 397 kts | 128° |
| 2026-04-25 13:22 | 40.93301 | 27.67636 | 15764 ft | 393 kts | 128° |
| 2026-04-25 13:23 | 40.89933 | 27.73267 | 14634 ft | 387 kts | 128° |
| 2026-04-25 13:23 | 40.88269 | 27.76047 | 14082 ft | 384 kts | 128° |
| 2026-04-25 13:23 | 40.86617 | 27.78804 | 13487 ft | 381 kts | 128° |
| 2026-04-25 13:23 | 40.84974 | 27.81543 | 12883 ft | 379 kts | 128° |
| 2026-04-25 13:24 | 40.83358 | 27.84266 | 12303 ft | 375 kts | 126° |
| 2026-04-25 13:24 | 40.82254 | 27.87357 | 11706 ft | 374 kts | 104° |
| 2026-04-25 13:24 | 40.82027 | 27.90753 | 11157 ft | 371 kts | 86° |
| 2026-04-25 13:24 | 40.82270 | 27.94091 | 10991 ft | 358 kts | 84° |
| 2026-04-25 13:25 | 40.82525 | 27.97299 | 10818 ft | 346 kts | 84° |
| 2026-04-25 13:25 | 40.82761 | 28.00360 | 10666 ft | 334 kts | 85° |
| 2026-04-25 13:25 | 40.82981 | 28.03365 | 10524 ft | 324 kts | 85° |
| 2026-04-25 13:25 | 40.83186 | 28.06280 | 10393 ft | 314 kts | 85° |
| 2026-04-25 13:26 | 40.83346 | 28.08617 | 10277 ft | 306 kts | 85° |
| 2026-04-25 13:26 | 40.83532 | 28.11375 | 10153 ft | 297 kts | 86° |
| 2026-04-25 13:26 | 40.83713 | 28.14059 | 10038 ft | 289 kts | 86° |
| 2026-04-25 13:26 | 40.83888 | 28.16677 | 9871 ft | 283 kts | 86° |
| 2026-04-25 13:27 | 40.84059 | 28.19244 | 9693 ft | 279 kts | 86° |
| 2026-04-25 13:27 | 40.84228 | 28.21784 | 9547 ft | 278 kts | 86° |
| 2026-04-25 13:27 | 40.84396 | 28.24331 | 9391 ft | 279 kts | 86° |
| 2026-04-25 13:27 | 40.84564 | 28.26877 | 9228 ft | 279 kts | 86° |
| 2026-04-25 13:28 | 40.84733 | 28.29432 | 9076 ft | 280 kts | 86° |
| 2026-04-25 13:28 | 40.84787 | 28.30267 | 9015 ft | 280 kts | 86° |
| 2026-04-25 13:28 | 40.85069 | 28.34564 | 8745 ft | 281 kts | 86° |
| 2026-04-25 13:28 | 40.85238 | 28.37137 | 8569 ft | 282 kts | 86° |
| 2026-04-25 13:29 | 40.85405 | 28.39715 | 8393 ft | 279 kts | 86° |
| 2026-04-25 13:29 | 40.85570 | 28.42247 | 8218 ft | 273 kts | 86° |
| 2026-04-25 13:29 | 40.85733 | 28.44705 | 8051 ft | 265 kts | 84° |
| 2026-04-25 13:30 | 40.87410 | 28.48818 | 7849 ft | 251 kts | 54° |
| 2026-04-25 13:30 | 40.88451 | 28.50640 | 7855 ft | 246 kts | 54° |
| 2026-04-25 13:30 | 40.89485 | 28.52454 | 7870 ft | 249 kts | 54° |
| 2026-04-25 13:31 | 40.91271 | 28.55593 | 7604 ft | 264 kts | 54° |
| 2026-04-25 13:31 | 40.92371 | 28.57534 | 7222 ft | 269 kts | 54° |
| 2026-04-25 13:31 | 40.93503 | 28.59534 | 6835 ft | 273 kts | 54° |
| 2026-04-25 13:31 | 40.94649 | 28.61560 | 6455 ft | 276 kts | 54° |
| 2026-04-25 13:32 | 40.95805 | 28.63607 | 6058 ft | 279 kts | 54° |
| 2026-04-25 13:32 | 40.96984 | 28.65700 | 5658 ft | 280 kts | 54° |
| 2026-04-25 13:32 | 40.98127 | 28.67714 | 5245 ft | 276 kts | 53° |
| 2026-04-25 13:32 | 40.99266 | 28.69703 | 5016 ft | 263 kts | 54° |
| 2026-04-25 13:33 | 41.00338 | 28.71571 | 4994 ft | 248 kts | 53° |
| 2026-04-25 13:33 | 41.01587 | 28.73043 | 4971 ft | 241 kts | 23° |
| 2026-04-25 13:33 | 41.03221 | 28.73335 | 4888 ft | 243 kts | 359° |
| 2026-04-25 13:33 | 41.04362 | 28.73289 | 4617 ft | 249 kts | 359° |
| 2026-04-25 13:34 | 41.06694 | 28.73229 | 4166 ft | 252 kts | 0° |
| 2026-04-25 13:34 | 41.08462 | 28.73189 | 3816 ft | 255 kts | 0° |
| 2026-04-25 13:34 | 41.10244 | 28.73150 | 3468 ft | 256 kts | 0° |
| 2026-04-25 13:34 | 41.12035 | 28.73106 | 3118 ft | 258 kts | 0° |
| 2026-04-25 13:35 | 41.13218 | 28.73077 | 2920 ft | 255 kts | 0° |
| 2026-04-25 13:35 | 41.15537 | 28.73025 | 2456 ft | 241 kts | 1° |
| 2026-04-25 13:35 | 41.17161 | 28.72984 | 2129 ft | 224 kts | 1° |
| 2026-04-25 13:35 | 41.18643 | 28.72952 | 1841 ft | 207 kts | 1° |
| 2026-04-25 13:36 | 41.20039 | 28.72919 | 1577 ft | 194 kts | 1° |
| 2026-04-25 13:36 | 41.21364 | 28.72888 | 1328 ft | 181 kts | 1° |
| 2026-04-25 13:36 | 41.22555 | 28.72860 | 1089 ft | 170 kts | 1° |
| 2026-04-25 13:36 | 41.23706 | 28.72837 | 815 ft | 156 kts | 359° |
| 2026-04-25 13:37 | 41.24732 | 28.72798 | 657 ft | 143 kts | 2° |
| 2026-04-25 13:37 | 41.25718 | 28.72782 | 479 ft | 142 kts | 2° |
| 2026-04-25 13:37 | 41.26707 | 28.72761 | 348 ft | 138 kts | 0° |
| 2026-04-25 13:37 | 41.27571 | 28.72749 | 329 ft | 108 kts | 359° |
| 2026-04-25 13:38 | 41.28206 | 28.72732 | 331 ft | 74 kts | 359° |
| 2026-04-25 13:38 | 41.28548 | 28.72754 | 331 ft | 32 kts | 16° |
| 2026-04-25 13:38 | 41.28697 | 28.72845 | 331 ft | 11 kts | 29° |
| 2026-04-25 13:38 | 41.28733 | 28.72919 | 333 ft | 10 kts | 100° |
| 2026-04-25 13:39 | 41.28672 | 28.72949 | 331 ft | 10 kts | 181° |
| 2026-04-25 13:39 | 41.28603 | 28.72948 | 332 ft | 10 kts | 180° |
| 2026-04-25 13:39 | 41.28535 | 28.72948 | 332 ft | 10 kts | 178° |
| 2026-04-25 13:39 | 41.28466 | 28.72952 | 332 ft | 11 kts | 178° |
| 2026-04-25 13:40 | 41.28382 | 28.72954 | 332 ft | 13 kts | 179° |
| 2026-04-25 13:40 | 41.28287 | 28.72956 | 329 ft | 13 kts | 178° |
| 2026-04-25 13:40 | 41.28197 | 28.72958 | 332 ft | 13 kts | 179° |
| 2026-04-25 13:40 | 41.28110 | 28.72960 | 333 ft | 12 kts | 179° |
| 2026-04-25 13:41 | 41.28024 | 28.72962 | 330 ft | 12 kts | 180° |
| 2026-04-25 13:41 | 41.27941 | 28.72963 | 332 ft | 12 kts | 179° |
| 2026-04-25 13:41 | 41.27860 | 28.72966 | 330 ft | 11 kts | 179° |
| 2026-04-25 13:41 | 41.27782 | 28.72968 | 331 ft | 11 kts | 178° |
| 2026-04-25 13:42 | 41.27706 | 28.72972 | 331 ft | 11 kts | 178° |
| 2026-04-25 13:42 | 41.27629 | 28.72973 | 329 ft | 12 kts | 179° |
| 2026-04-25 13:42 | 41.27529 | 28.72975 | 332 ft | 15 kts | 179° |
| 2026-04-25 13:42 | 41.27427 | 28.72977 | 329 ft | 14 kts | 179° |
| 2026-04-25 13:43 | 41.27310 | 28.72979 | 332 ft | 23 kts | 179° |
| 2026-04-25 13:43 | 41.27151 | 28.72982 | 333 ft | 23 kts | 179° |
| 2026-04-25 13:43 | 41.26996 | 28.72988 | 332 ft | 20 kts | 174° |
| 2026-04-25 13:43 | 41.26954 | 28.73114 | 333 ft | 16 kts | 90° |
| 2026-04-25 13:44 | 41.26960 | 28.73260 | 332 ft | 16 kts | 84° |
| 2026-04-25 13:44 | 41.26958 | 28.73400 | 330 ft | 15 kts | 90° |
| 2026-04-25 13:44 | 41.26958 | 28.73535 | 333 ft | 14 kts | 90° |
| 2026-04-25 13:44 | 41.26959 | 28.73664 | 333 ft | 14 kts | 89° |
| 2026-04-25 13:45 | 41.26962 | 28.73727 | 333 ft | 3 kts | 90° |
| 2026-04-25 13:45 | 41.26960 | 28.73839 | 332 ft | 17 kts | 104° |
| 2026-04-25 13:45 | 41.26912 | 28.73871 | 333 ft | 7 kts | 178° |
| 2026-04-25 13:45 | 41.26850 | 28.73873 | 329 ft | 12 kts | 179° |
| 2026-04-25 13:46 | 41.26764 | 28.73875 | 329 ft | 13 kts | 179° |
| 2026-04-25 13:46 | 41.26672 | 28.73877 | 332 ft | 13 kts | 179° |
| 2026-04-25 13:46 | 41.26584 | 28.73880 | 333 ft | 12 kts | 179° |
| 2026-04-25 13:46 | 41.26500 | 28.73899 | 332 ft | 12 kts | 162° |
| 2026-04-25 13:47 | 41.26449 | 28.73882 | 331 ft | 6 kts | 245° |
| 2026-04-25 13:47 | 41.26436 | 28.73833 | 331 ft | 5 kts | 250° |
| 2026-04-25 13:47 | 41.26429 | 28.73808 | 332 ft | 0 kts | 250° |